sensor_id;sensor_type;location;lat;lon;timestamp;P1;durP1;ratioP1;P2;durP2;ratioP2
51654;SDS011;37732;53.106;7.030;2023-01-15T18:15:37;16.10;;;5.15;;
51654;SDS011;37732;53.106;7.030;2023-01-15T18:18:03;16.52;;;5.13;;
51654;SDS011;37732;53.106;7.030;2023-01-15T18:20:29;13.43;;;4.05;;
51654;SDS011;37732;53.106;7.030;2023-01-15T18:22:55;14.57;;;3.83;;
51654;SDS011;37732;53.106;7.030;2023-01-15T18:25:21;12.18;;;4.10;;
51654;SDS011;37732;53.106;7.030;2023-01-15T18:27:56;7.18;;;3.00;;
51654;SDS011;37732;53.106;7.030;2023-01-15T18:30:21;11.32;;;3.50;;
51654;SDS011;37732;53.106;7.030;2023-01-15T18:32:47;10.10;;;3.20;;
51654;SDS011;37732;53.106;7.030;2023-01-15T18:35:13;10.88;;;3.55;;
51654;SDS011;37732;53.106;7.030;2023-01-15T18:37:39;16.23;;;3.88;;
51654;SDS011;37732;53.106;7.030;2023-01-15T18:40:05;12.20;;;3.55;;
51654;SDS011;37732;53.106;7.030;2023-01-15T18:42:31;11.98;;;4.25;;
51654;SDS011;37732;53.106;7.030;2023-01-15T18:45:16;10.48;;;3.75;;
51654;SDS011;37732;53.106;7.030;2023-01-15T18:48:00;10.90;;;3.83;;
51654;SDS011;37732;53.106;7.030;2023-01-15T18:50:29;11.63;;;3.22;;
51654;SDS011;37732;53.106;7.030;2023-01-15T18:52:54;9.80;;;3.22;;
51654;SDS011;37732;53.106;7.030;2023-01-15T18:55:20;10.57;;;3.05;;
51654;SDS011;37732;53.106;7.030;2023-01-15T18:57:50;11.15;;;3.70;;
51654;SDS011;37732;53.106;7.030;2023-01-15T19:00:20;11.70;;;3.20;;
51654;SDS011;37732;53.106;7.030;2023-01-15T19:02:47;10.88;;;4.13;;
51654;SDS011;37732;53.106;7.030;2023-01-15T19:05:13;7.30;;;3.08;;
51654;SDS011;37732;53.106;7.030;2023-01-15T19:07:41;8.45;;;3.15;;
51654;SDS011;37732;53.106;7.030;2023-01-15T19:10:08;12.27;;;3.67;;
51654;SDS011;37732;53.106;7.030;2023-01-15T19:12:36;8.63;;;3.15;;
51654;SDS011;37732;53.106;7.030;2023-01-15T19:15:02;9.52;;;3.30;;
51654;SDS011;37732;53.106;7.030;2023-01-15T19:17:47;8.73;;;3.08;;
51654;SDS011;37732;53.106;7.030;2023-01-15T19:20:32;14.63;;;4.07;;
51654;SDS011;37732;53.106;7.030;2023-01-15T19:22:57;11.32;;;3.65;;
51654;SDS011;37732;53.106;7.030;2023-01-15T19:25:27;11.70;;;4.07;;
51654;SDS011;37732;53.106;7.030;2023-01-15T19:27:53;10.50;;;4.53;;
51654;SDS011;37732;53.106;7.030;2023-01-15T19:30:19;9.35;;;4.20;;
51654;SDS011;37732;53.106;7.030;2023-01-15T19:32:45;14.52;;;4.35;;
51654;SDS011;37732;53.106;7.030;2023-01-15T19:35:11;8.20;;;3.83;;
51654;SDS011;37732;53.106;7.030;2023-01-15T19:37:37;9.88;;;3.33;;
51654;SDS011;37732;53.106;7.030;2023-01-15T19:40:11;10.95;;;3.58;;
51654;SDS011;37732;53.106;7.030;2023-01-15T19:42:47;9.85;;;3.38;;
51654;SDS011;37732;53.106;7.030;2023-01-15T19:45:42;9.57;;;3.42;;
51654;SDS011;37732;53.106;7.030;2023-01-15T19:48:27;8.75;;;3.10;;
51654;SDS011;37732;53.106;7.030;2023-01-15T19:51:12;7.65;;;2.38;;
51654;SDS011;37732;53.106;7.030;2023-01-15T19:53:38;6.32;;;2.45;;
51654;SDS011;37732;53.106;7.030;2023-01-15T19:56:04;6.63;;;2.30;;
51654;SDS011;37732;53.106;7.030;2023-01-15T19:58:31;6.90;;;2.20;;
51654;SDS011;37732;53.106;7.030;2023-01-15T20:01:03;5.05;;;2.10;;
51654;SDS011;37732;53.106;7.030;2023-01-15T20:03:29;6.30;;;1.90;;
51654;SDS011;37732;53.106;7.030;2023-01-15T20:05:55;7.90;;;2.42;;
51654;SDS011;37732;53.106;7.030;2023-01-15T20:08:22;4.88;;;2.10;;
51654;SDS011;37732;53.106;7.030;2023-01-15T20:10:48;5.40;;;2.30;;
51654;SDS011;37732;53.106;7.030;2023-01-15T20:13:17;7.22;;;2.25;;
51654;SDS011;37732;53.106;7.030;2023-01-15T20:16:13;6.30;;;1.98;;
51654;SDS011;37732;53.106;7.030;2023-01-15T20:18:41;5.15;;;2.13;;
51654;SDS011;37732;53.106;7.030;2023-01-15T20:21:07;4.22;;;2.28;;
51654;SDS011;37732;53.106;7.030;2023-01-15T20:23:36;5.43;;;2.15;;
51654;SDS011;37732;53.106;7.030;2023-01-15T20:26:06;5.15;;;2.53;;
51654;SDS011;37732;53.106;7.030;2023-01-15T20:28:35;5.63;;;3.00;;
51654;SDS011;37732;53.106;7.030;2023-01-15T20:31:12;6.03;;;2.92;;
51654;SDS011;37732;53.106;7.030;2023-01-15T20:33:39;6.45;;;3.00;;
51654;SDS011;37732;53.106;7.030;2023-01-15T20:36:05;5.50;;;2.75;;
51654;SDS011;37732;53.106;7.030;2023-01-15T20:38:31;4.40;;;2.33;;
51654;SDS011;37732;53.106;7.030;2023-01-15T20:40:57;6.25;;;2.45;;
51654;SDS011;37732;53.106;7.030;2023-01-15T20:43:45;4.20;;;2.72;;
51654;SDS011;37732;53.106;7.030;2023-01-15T20:46:29;4.07;;;2.40;;
51654;SDS011;37732;53.106;7.030;2023-01-15T20:48:55;3.97;;;2.53;;
51654;SDS011;37732;53.106;7.030;2023-01-15T20:51:39;4.53;;;2.30;;
51654;SDS011;37732;53.106;7.030;2023-01-15T20:54:04;4.47;;;2.53;;
51654;SDS011;37732;53.106;7.030;2023-01-15T20:56:31;4.30;;;2.47;;
51654;SDS011;37732;53.106;7.030;2023-01-15T20:58:56;4.00;;;2.90;;
51654;SDS011;37732;53.106;7.030;2023-01-15T21:01:22;8.82;;;3.10;;
51654;SDS011;37732;53.106;7.030;2023-01-15T21:03:49;5.90;;;4.00;;
51654;SDS011;37732;53.106;7.030;2023-01-15T21:06:14;5.47;;;3.35;;
51654;SDS011;37732;53.106;7.030;2023-01-15T21:08:41;5.35;;;3.80;;
51654;SDS011;37732;53.106;7.030;2023-01-15T21:11:10;7.90;;;4.40;;
51654;SDS011;37732;53.106;7.030;2023-01-15T21:13:36;7.90;;;4.32;;
51654;SDS011;37732;53.106;7.030;2023-01-15T21:16:05;9.55;;;5.65;;
51654;SDS011;37732;53.106;7.030;2023-01-15T21:18:32;8.43;;;5.40;;
51654;SDS011;37732;53.106;7.030;2023-01-15T21:21:11;8.25;;;6.30;;
51654;SDS011;37732;53.106;7.030;2023-01-15T21:23:38;10.60;;;6.68;;
51654;SDS011;37732;53.106;7.030;2023-01-15T21:26:04;9.10;;;6.40;;
51654;SDS011;37732;53.106;7.030;2023-01-15T21:28:30;8.98;;;7.32;;
51654;SDS011;37732;53.106;7.030;2023-01-15T21:30:56;9.15;;;7.70;;
51654;SDS011;37732;53.106;7.030;2023-01-15T21:33:24;10.70;;;7.53;;
51654;SDS011;37732;53.106;7.030;2023-01-15T21:35:50;8.50;;;6.82;;
51654;SDS011;37732;53.106;7.030;2023-01-15T21:38:15;11.57;;;8.30;;
51654;SDS011;37732;53.106;7.030;2023-01-15T21:40:41;13.52;;;9.23;;
51654;SDS011;37732;53.106;7.030;2023-01-15T21:43:08;10.15;;;7.03;;
51654;SDS011;37732;53.106;7.030;2023-01-15T21:45:59;10.70;;;7.55;;
51654;SDS011;37732;53.106;7.030;2023-01-15T21:48:26;9.52;;;7.18;;
51654;SDS011;37732;53.106;7.030;2023-01-15T21:50:52;10.25;;;7.88;;
51654;SDS011;37732;53.106;7.030;2023-01-15T21:53:17;13.25;;;7.82;;
51654;SDS011;37732;53.106;7.030;2023-01-15T21:55:49;12.25;;;7.93;;
51654;SDS011;37732;53.106;7.030;2023-01-15T21:58:16;13.97;;;9.37;;
51654;SDS011;37732;53.106;7.030;2023-01-15T22:00:42;11.18;;;8.57;;
51654;SDS011;37732;53.106;7.030;2023-01-15T22:03:08;15.05;;;9.18;;
51654;SDS011;37732;53.106;7.030;2023-01-15T22:08:08;12.98;;;8.27;;
51654;SDS011;37732;53.106;7.030;2023-01-15T22:10:34;9.23;;;7.93;;
51654;SDS011;37732;53.106;7.030;2023-01-15T22:12:59;14.68;;;8.63;;
51654;SDS011;37732;53.106;7.030;2023-01-15T22:15:25;11.10;;;8.32;;
51654;SDS011;37732;53.106;7.030;2023-01-15T22:17:51;11.38;;;7.65;;
51654;SDS011;37732;53.106;7.030;2023-01-15T22:20:18;9.30;;;7.13;;
51654;SDS011;37732;53.106;7.030;2023-01-15T22:22:44;9.98;;;7.85;;
51654;SDS011;37732;53.106;7.030;2023-01-15T22:25:12;12.43;;;7.18;;
51654;SDS011;37732;53.106;7.030;2023-01-15T22:27:39;11.50;;;7.85;;
51654;SDS011;37732;53.106;7.030;2023-01-15T22:30:10;9.32;;;8.27;;
51654;SDS011;37732;53.106;7.030;2023-01-15T22:32:37;13.45;;;8.02;;
51654;SDS011;37732;53.106;7.030;2023-01-15T22:35:03;10.57;;;7.18;;
51654;SDS011;37732;53.106;7.030;2023-01-15T22:37:30;10.05;;;7.05;;
51654;SDS011;37732;53.106;7.030;2023-01-15T22:39:55;9.85;;;7.43;;
51654;SDS011;37732;53.106;7.030;2023-01-15T22:42:21;8.25;;;6.80;;
51654;SDS011;37732;53.106;7.030;2023-01-15T22:44:51;7.28;;;5.97;;
51654;SDS011;37732;53.106;7.030;2023-01-15T22:47:20;12.38;;;7.28;;
51654;SDS011;37732;53.106;7.030;2023-01-15T22:49:46;7.57;;;5.82;;
51654;SDS011;37732;53.106;7.030;2023-01-15T22:52:11;11.80;;;6.50;;
51654;SDS011;37732;53.106;7.030;2023-01-15T22:54:37;8.45;;;6.05;;
51654;SDS011;37732;53.106;7.030;2023-01-15T22:57:03;10.13;;;5.80;;
51654;SDS011;37732;53.106;7.030;2023-01-15T22:59:29;6.82;;;5.07;;
51654;SDS011;37732;53.106;7.030;2023-01-15T23:01:55;6.95;;;5.20;;
51654;SDS011;37732;53.106;7.030;2023-01-15T23:04:21;7.80;;;5.97;;
51654;SDS011;37732;53.106;7.030;2023-01-15T23:06:48;9.48;;;5.95;;
51654;SDS011;37732;53.106;7.030;2023-01-15T23:09:16;7.72;;;5.20;;
51654;SDS011;37732;53.106;7.030;2023-01-15T23:11:42;8.18;;;5.22;;
51654;SDS011;37732;53.106;7.030;2023-01-15T23:14:08;6.80;;;5.10;;
51654;SDS011;37732;53.106;7.030;2023-01-15T23:16:35;7.32;;;5.20;;
51654;SDS011;37732;53.106;7.030;2023-01-15T23:19:01;7.57;;;5.03;;
51654;SDS011;37732;53.106;7.030;2023-01-15T23:21:27;7.97;;;5.18;;
51654;SDS011;37732;53.106;7.030;2023-01-15T23:23:57;8.68;;;5.20;;
51654;SDS011;37732;53.106;7.030;2023-01-15T23:26:25;7.32;;;4.57;;
51654;SDS011;37732;53.106;7.030;2023-01-15T23:28:53;8.38;;;5.05;;
51654;SDS011;37732;53.106;7.030;2023-01-15T23:31:18;9.25;;;5.43;;
51654;SDS011;37732;53.106;7.030;2023-01-15T23:33:45;7.85;;;4.60;;
51654;SDS011;37732;53.106;7.030;2023-01-15T23:36:11;7.68;;;4.70;;
51654;SDS011;37732;53.106;7.030;2023-01-15T23:38:40;7.90;;;4.60;;
51654;SDS011;37732;53.106;7.030;2023-01-15T23:41:08;7.25;;;4.75;;
51654;SDS011;37732;53.106;7.030;2023-01-15T23:43:37;7.90;;;4.45;;
51654;SDS011;37732;53.106;7.030;2023-01-15T23:46:21;7.50;;;4.28;;
51654;SDS011;37732;53.106;7.030;2023-01-15T23:51:30;6.43;;;3.83;;
51654;SDS011;37732;53.106;7.030;2023-01-15T23:53:56;6.70;;;3.58;;
51654;SDS011;37732;53.106;7.030;2023-01-15T23:56:22;6.80;;;3.67;;
51654;SDS011;37732;53.106;7.030;2023-01-15T23:58:48;6.38;;;3.55;;
